Sao Simao, Brazil
Current Conditions -  °F | °C
As of 4:00 AM on Thursday 29 Jan 2015 (Local Time) from SBRP Reporting Station
Scattered Clouds Scattered Clouds  
Wind Chill: 72°   Ceiling: Unl
Heat Index: 72°   Visibility: 6mi
Dew Point: 66°   Wind: 7mph
Humidity: 83%   Direction: 240°WSW
Pressure: 29.97"   Gusts: NA
Location:  21.48°S, 47.55°W
Report Text: SBRP 290600Z 24006KT 9999 FEW045 SCT100 22/19 Q1015 RETS
Loading
Personal Weather Stations






























Interactive Weather Map New forecast layout! Learn more

10-Day Weather Forecast

Advertisements
Track Severe Weather on mobile